TimeMST,TemperatureF,Dew PointF,Humidity,Sea Level PressureIn,VisibilityMPH,Wind Direction,Wind SpeedMPH,Gust SpeedMPH,PrecipitationIn,Events,Conditions,WindDirDegrees,DateUTC
12:56 AM,-2.0,-6.0,83,30.61,-9999.0,Calm,Calm,-,N/A,,Unknown,0,2013-01-21 07:56:00
1:56 AM,-2.9,-8.0,79,30.60,-9999.0,Calm,Calm,-,N/A,,Unknown,0,2013-01-21 08:56:00
2:56 AM,-5.1,-9.0,83,30.60,-9999.0,NW,3.5,-,N/A,,Unknown,320,2013-01-21 09:56:00
3:56 AM,-6.0,-9.9,83,30.58,-9999.0,Calm,Calm,-,N/A,,Unknown,0,2013-01-21 10:56:00
4:56 AM,-5.1,-9.9,80,30.58,-9999.0,Calm,Calm,-,N/A,,Unknown,0,2013-01-21 11:56:00
5:56 AM,-7.1,-11.0,83,30.63,-9999.0,Calm,Calm,-,N/A,,Unknown,0,2013-01-21 12:56:00
6:56 AM,-7.1,-11.9,79,30.66,-9999.0,Calm,Calm,-,N/A,,Unknown,0,2013-01-21 13:56:00
7:56 AM,-8.0,-13.0,79,30.70,-9999.0,Calm,Calm,-,N/A,,Unknown,0,2013-01-21 14:56:00
8:56 AM,-2.9,-6.0,87,30.67,-9999.0,Calm,Calm,-,N/A,,Unknown,0,2013-01-21 15:56:00
9:56 AM,9.0,7.0,92,30.62,-9999.0,Calm,Calm,-,N/A,,Unknown,0,2013-01-21 16:56:00
10:56 AM,17.1,8.1,68,30.58,-9999.0,Calm,Calm,-,N/A,,Unknown,0,2013-01-21 17:56:00
11:56 AM,16.0,5.0,62,30.58,-9999.0,Calm,Calm,-,N/A,,Unknown,0,2013-01-21 18:56:00
12:56 PM,18.0,6.1,60,30.56,-9999.0,ESE,4.6,-,N/A,,Unknown,120,2013-01-21 19:56:00
1:56 PM,27.0,12.0,53,30.49,-9999.0,East,3.5,-,N/A,,Unknown,100,2013-01-21 20:56:00
2:56 PM,30.0,12.9,49,30.47,-9999.0,Variable,3.5,-,N/A,,Unknown,0,2013-01-21 21:56:00
3:56 PM,27.0,10.9,51,30.48,-9999.0,Calm,Calm,-,N/A,,Unknown,0,2013-01-21 22:56:00
4:56 PM,24.1,10.9,57,30.51,-9999.0,Variable,3.5,-,N/A,,Unknown,0,2013-01-21 23:56:00
5:56 PM,16.0,10.0,77,30.56,-9999.0,Calm,Calm,-,N/A,,Unknown,0,2013-01-22 00:56:00
6:56 PM,10.0,6.1,84,30.61,-9999.0,WNW,3.5,-,N/A,,Unknown,300,2013-01-22 01:56:00
7:56 PM,6.1,3.0,87,30.65,-9999.0,Calm,Calm,-,N/A,,Unknown,0,2013-01-22 02:56:00
8:56 PM,3.0,-0.0,87,30.64,-9999.0,Calm,Calm,-,N/A,,Unknown,0,2013-01-22 03:56:00
9:56 PM,1.9,-2.0,83,30.56,-9999.0,Calm,Calm,-,N/A,,Unknown,0,2013-01-22 04:56:00
10:56 PM,-0.9,-5.1,83,30.54,-9999.0,Calm,Calm,-,N/A,,Unknown,0,2013-01-22 05:56:00
11:56 PM,-2.9,-7.1,82,30.56,-9999.0,WNW,3.5,-,N/A,,Unknown,300,2013-01-22 06:56:00